sensor_id;sensor_type;location;lat;lon;timestamp;P1;durP1;ratioP1;P2;durP2;ratioP2
7375;SDS011;3728;42.266;24.944;2023-12-28T00:00:42;7.80;;;5.03;;
7375;SDS011;3728;42.266;24.944;2023-12-28T00:03:10;7.70;;;5.90;;
7375;SDS011;3728;42.266;24.944;2023-12-28T00:05:37;21.33;;;8.77;;
7375;SDS011;3728;42.266;24.944;2023-12-28T00:08:05;17.23;;;8.20;;
7375;SDS011;3728;42.266;24.944;2023-12-28T00:10:33;21.87;;;8.83;;
7375;SDS011;3728;42.266;24.944;2023-12-28T00:13:00;20.00;;;8.30;;
7375;SDS011;3728;42.266;24.944;2023-12-28T00:15:28;21.23;;;8.43;;
7375;SDS011;3728;42.266;24.944;2023-12-28T00:17:55;22.63;;;8.03;;
7375;SDS011;3728;42.266;24.944;2023-12-28T00:20:23;14.97;;;7.47;;
7375;SDS011;3728;42.266;24.944;2023-12-28T00:22:51;9.20;;;6.00;;
7375;SDS011;3728;42.266;24.944;2023-12-28T00:25:18;9.20;;;6.47;;
7375;SDS011;3728;42.266;24.944;2023-12-28T00:27:45;10.63;;;6.00;;
7375;SDS011;3728;42.266;24.944;2023-12-28T00:30:13;10.30;;;6.90;;
7375;SDS011;3728;42.266;24.944;2023-12-28T00:32:44;10.00;;;6.27;;
7375;SDS011;3728;42.266;24.944;2023-12-28T00:35:12;10.03;;;6.57;;
7375;SDS011;3728;42.266;24.944;2023-12-28T00:37:40;10.23;;;6.60;;
7375;SDS011;3728;42.266;24.944;2023-12-28T00:40:08;11.80;;;7.10;;
7375;SDS011;3728;42.266;24.944;2023-12-28T00:42:35;10.97;;;6.27;;
7375;SDS011;3728;42.266;24.944;2023-12-28T00:45:03;11.37;;;7.37;;
7375;SDS011;3728;42.266;24.944;2023-12-28T00:47:31;13.87;;;7.83;;
7375;SDS011;3728;42.266;24.944;2023-12-28T00:49:58;11.87;;;8.07;;
7375;SDS011;3728;42.266;24.944;2023-12-28T00:52:26;19.10;;;9.70;;
7375;SDS011;3728;42.266;24.944;2023-12-28T00:54:53;16.10;;;9.30;;
7375;SDS011;3728;42.266;24.944;2023-12-28T00:57:21;17.57;;;10.70;;
7375;SDS011;3728;42.266;24.944;2023-12-28T00:59:48;16.37;;;10.30;;
7375;SDS011;3728;42.266;24.944;2023-12-28T01:02:16;18.17;;;10.67;;
7375;SDS011;3728;42.266;24.944;2023-12-28T01:04:43;24.67;;;12.03;;
7375;SDS011;3728;42.266;24.944;2023-12-28T01:07:11;19.47;;;11.17;;
7375;SDS011;3728;42.266;24.944;2023-12-28T01:09:38;21.87;;;11.53;;
7375;SDS011;3728;42.266;24.944;2023-12-28T01:12:06;21.43;;;11.43;;
7375;SDS011;3728;42.266;24.944;2023-12-28T01:14:34;18.43;;;9.77;;
7375;SDS011;3728;42.266;24.944;2023-12-28T01:17:01;16.57;;;9.77;;
7375;SDS011;3728;42.266;24.944;2023-12-28T01:19:29;14.53;;;9.53;;
7375;SDS011;3728;42.266;24.944;2023-12-28T01:21:56;12.53;;;7.63;;
7375;SDS011;3728;42.266;24.944;2023-12-28T01:24:24;12.20;;;8.13;;
7375;SDS011;3728;42.266;24.944;2023-12-28T01:26:53;10.50;;;7.37;;
7375;SDS011;3728;42.266;24.944;2023-12-28T01:29:21;10.53;;;7.20;;
7375;SDS011;3728;42.266;24.944;2023-12-28T01:31:49;18.10;;;9.67;;
7375;SDS011;3728;42.266;24.944;2023-12-28T01:34:16;15.57;;;10.63;;
7375;SDS011;3728;42.266;24.944;2023-12-28T01:36:44;22.67;;;12.83;;
7375;SDS011;3728;42.266;24.944;2023-12-28T01:39:12;19.80;;;12.57;;
7375;SDS011;3728;42.266;24.944;2023-12-28T01:41:41;21.97;;;15.40;;
7375;SDS011;3728;42.266;24.944;2023-12-28T01:44:12;20.50;;;14.57;;
7375;SDS011;3728;42.266;24.944;2023-12-28T01:46:39;21.00;;;14.17;;
7375;SDS011;3728;42.266;24.944;2023-12-28T01:49:08;20.03;;;12.93;;
7375;SDS011;3728;42.266;24.944;2023-12-28T01:51:35;18.97;;;11.37;;
7375;SDS011;3728;42.266;24.944;2023-12-28T01:54:04;22.93;;;11.83;;
7375;SDS011;3728;42.266;24.944;2023-12-28T01:56:32;19.13;;;10.57;;
7375;SDS011;3728;42.266;24.944;2023-12-28T01:58:59;20.83;;;11.10;;
7375;SDS011;3728;42.266;24.944;2023-12-28T02:01:27;16.90;;;9.80;;
7375;SDS011;3728;42.266;24.944;2023-12-28T02:03:55;20.67;;;11.00;;
7375;SDS011;3728;42.266;24.944;2023-12-28T02:06:23;16.33;;;10.87;;
7375;SDS011;3728;42.266;24.944;2023-12-28T02:08:51;26.40;;;11.37;;
7375;SDS011;3728;42.266;24.944;2023-12-28T02:11:18;17.80;;;10.40;;
7375;SDS011;3728;42.266;24.944;2023-12-28T02:13:46;19.40;;;10.83;;
7375;SDS011;3728;42.266;24.944;2023-12-28T02:16:22;15.40;;;9.53;;
7375;SDS011;3728;42.266;24.944;2023-12-28T02:18:56;17.03;;;9.33;;
7375;SDS011;3728;42.266;24.944;2023-12-28T02:21:27;15.80;;;8.43;;
7375;SDS011;3728;42.266;24.944;2023-12-28T02:23:55;26.83;;;10.60;;
7375;SDS011;3728;42.266;24.944;2023-12-28T02:26:23;28.33;;;10.53;;
7375;SDS011;3728;42.266;24.944;2023-12-28T02:28:52;20.97;;;9.93;;
7375;SDS011;3728;42.266;24.944;2023-12-28T02:31:39;37.10;;;15.57;;
7375;SDS011;3728;42.266;24.944;2023-12-28T02:34:15;17.87;;;8.53;;
7375;SDS011;3728;42.266;24.944;2023-12-28T02:36:50;16.87;;;8.30;;
7375;SDS011;3728;42.266;24.944;2023-12-28T02:39:19;17.80;;;8.77;;
7375;SDS011;3728;42.266;24.944;2023-12-28T02:41:49;15.83;;;8.20;;
7375;SDS011;3728;42.266;24.944;2023-12-28T02:44:17;19.13;;;9.47;;
7375;SDS011;3728;42.266;24.944;2023-12-28T02:46:45;23.13;;;14.03;;
7375;SDS011;3728;42.266;24.944;2023-12-28T02:49:13;23.73;;;12.23;;
7375;SDS011;3728;42.266;24.944;2023-12-28T02:51:42;33.17;;;16.17;;
7375;SDS011;3728;42.266;24.944;2023-12-28T02:54:09;31.57;;;15.87;;
7375;SDS011;3728;42.266;24.944;2023-12-28T02:56:39;29.20;;;15.43;;
7375;SDS011;3728;42.266;24.944;2023-12-28T02:59:09;32.67;;;17.13;;
7375;SDS011;3728;42.266;24.944;2023-12-28T03:01:37;30.60;;;16.57;;
7375;SDS011;3728;42.266;24.944;2023-12-28T03:04:04;33.43;;;17.80;;
7375;SDS011;3728;42.266;24.944;2023-12-28T03:06:32;35.17;;;17.37;;
7375;SDS011;3728;42.266;24.944;2023-12-28T03:08:59;33.87;;;17.53;;
7375;SDS011;3728;42.266;24.944;2023-12-28T03:11:26;32.73;;;16.47;;
7375;SDS011;3728;42.266;24.944;2023-12-28T03:13:54;33.03;;;16.33;;
7375;SDS011;3728;42.266;24.944;2023-12-28T03:16:21;31.00;;;16.37;;
7375;SDS011;3728;42.266;24.944;2023-12-28T03:18:48;30.80;;;17.07;;
7375;SDS011;3728;42.266;24.944;2023-12-28T03:21:16;27.13;;;15.93;;
7375;SDS011;3728;42.266;24.944;2023-12-28T03:23:43;26.83;;;15.70;;
7375;SDS011;3728;42.266;24.944;2023-12-28T03:26:11;27.47;;;14.80;;
7375;SDS011;3728;42.266;24.944;2023-12-28T03:28:39;25.17;;;16.47;;
7375;SDS011;3728;42.266;24.944;2023-12-28T03:31:07;20.83;;;13.33;;
7375;SDS011;3728;42.266;24.944;2023-12-28T03:33:34;23.50;;;12.87;;
7375;SDS011;3728;42.266;24.944;2023-12-28T03:36:02;20.20;;;12.60;;
7375;SDS011;3728;42.266;24.944;2023-12-28T03:38:29;23.33;;;12.93;;
7375;SDS011;3728;42.266;24.944;2023-12-28T03:40:57;25.73;;;13.93;;
7375;SDS011;3728;42.266;24.944;2023-12-28T03:43:26;24.83;;;14.70;;
7375;SDS011;3728;42.266;24.944;2023-12-28T03:45:53;21.00;;;12.80;;
7375;SDS011;3728;42.266;24.944;2023-12-28T03:48:21;32.57;;;15.70;;
7375;SDS011;3728;42.266;24.944;2023-12-28T03:50:49;26.80;;;13.93;;
7375;SDS011;3728;42.266;24.944;2023-12-28T03:53:16;32.43;;;16.73;;
7375;SDS011;3728;42.266;24.944;2023-12-28T03:55:44;39.97;;;16.87;;
7375;SDS011;3728;42.266;24.944;2023-12-28T03:58:11;60.13;;;34.50;;
7375;SDS011;3728;42.266;24.944;2023-12-28T04:00:38;68.67;;;35.00;;
7375;SDS011;3728;42.266;24.944;2023-12-28T04:03:06;55.27;;;28.90;;
7375;SDS011;3728;42.266;24.944;2023-12-28T04:05:33;48.13;;;28.63;;
7375;SDS011;3728;42.266;24.944;2023-12-28T04:08:01;39.97;;;22.67;;
7375;SDS011;3728;42.266;24.944;2023-12-28T04:10:29;47.40;;;24.63;;
7375;SDS011;3728;42.266;24.944;2023-12-28T04:12:59;37.77;;;20.53;;
7375;SDS011;3728;42.266;24.944;2023-12-28T04:15:33;39.37;;;20.57;;
7375;SDS011;3728;42.266;24.944;2023-12-28T04:18:04;34.43;;;18.60;;
7375;SDS011;3728;42.266;24.944;2023-12-28T04:20:32;35.40;;;18.97;;
7375;SDS011;3728;42.266;24.944;2023-12-28T04:23:00;36.53;;;20.10;;
7375;SDS011;3728;42.266;24.944;2023-12-28T04:25:27;35.67;;;20.03;;
7375;SDS011;3728;42.266;24.944;2023-12-28T04:27:54;44.27;;;29.03;;
7375;SDS011;3728;42.266;24.944;2023-12-28T04:30:22;44.03;;;25.70;;
7375;SDS011;3728;42.266;24.944;2023-12-28T04:32:50;44.20;;;25.13;;
7375;SDS011;3728;42.266;24.944;2023-12-28T04:35:18;43.93;;;22.47;;
7375;SDS011;3728;42.266;24.944;2023-12-28T04:37:46;40.23;;;19.93;;
7375;SDS011;3728;42.266;24.944;2023-12-28T04:40:13;33.07;;;18.13;;
7375;SDS011;3728;42.266;24.944;2023-12-28T04:42:41;30.03;;;18.30;;
7375;SDS011;3728;42.266;24.944;2023-12-28T04:45:08;30.50;;;16.63;;
7375;SDS011;3728;42.266;24.944;2023-12-28T04:47:39;42.43;;;23.67;;
7375;SDS011;3728;42.266;24.944;2023-12-28T04:50:08;38.47;;;22.20;;
7375;SDS011;3728;42.266;24.944;2023-12-28T04:52:35;40.53;;;21.90;;
7375;SDS011;3728;42.266;24.944;2023-12-28T04:55:03;98.40;;;41.57;;
7375;SDS011;3728;42.266;24.944;2023-12-28T04:57:31;81.67;;;36.50;;
7375;SDS011;3728;42.266;24.944;2023-12-28T04:59:58;85.03;;;42.30;;
7375;SDS011;3728;42.266;24.944;2023-12-28T05:02:25;81.53;;;45.00;;
7375;SDS011;3728;42.266;24.944;2023-12-28T05:04:53;55.83;;;28.87;;
7375;SDS011;3728;42.266;24.944;2023-12-28T05:07:21;141.70;;;75.50;;
7375;SDS011;3728;42.266;24.944;2023-12-28T05:09:48;105.77;;;58.03;;
7375;SDS011;3728;42.266;24.944;2023-12-28T05:12:16;118.30;;;61.80;;
7375;SDS011;3728;42.266;24.944;2023-12-28T05:14:43;118.53;;;60.93;;
7375;SDS011;3728;42.266;24.944;2023-12-28T05:17:11;102.00;;;58.73;;
7375;SDS011;3728;42.266;24.944;2023-12-28T05:19:38;115.73;;;59.00;;
7375;SDS011;3728;42.266;24.944;2023-12-28T05:22:06;90.20;;;44.43;;
7375;SDS011;3728;42.266;24.944;2023-12-28T05:24:37;91.33;;;47.27;;
7375;SDS011;3728;42.266;24.944;2023-12-28T05:27:05;95.50;;;48.83;;
7375;SDS011;3728;42.266;24.944;2023-12-28T05:29:32;59.43;;;31.53;;
7375;SDS011;3728;42.266;24.944;2023-12-28T05:32:00;67.00;;;32.57;;
7375;SDS011;3728;42.266;24.944;2023-12-28T05:34:27;57.23;;;30.57;;
7375;SDS011;3728;42.266;24.944;2023-12-28T05:36:55;49.73;;;28.10;;
7375;SDS011;3728;42.266;24.944;2023-12-28T05:39:22;49.10;;;29.53;;
7375;SDS011;3728;42.266;24.944;2023-12-28T05:41:50;48.40;;;26.30;;
7375;SDS011;3728;42.266;24.944;2023-12-28T05:44:17;40.13;;;24.97;;
7375;SDS011;3728;42.266;24.944;2023-12-28T05:46:45;41.90;;;23.20;;
7375;SDS011;3728;42.266;24.944;2023-12-28T05:49:12;46.27;;;21.83;;
7375;SDS011;3728;42.266;24.944;2023-12-28T05:51:40;63.27;;;26.00;;
7375;SDS011;3728;42.266;24.944;2023-12-28T05:54:08;169.57;;;71.60;;
7375;SDS011;3728;42.266;24.944;2023-12-28T05:56:35;82.20;;;36.73;;
7375;SDS011;3728;42.266;24.944;2023-12-28T05:59:03;59.77;;;30.30;;
7375;SDS011;3728;42.266;24.944;2023-12-28T06:01:30;62.10;;;30.03;;
7375;SDS011;3728;42.266;24.944;2023-12-28T06:03:58;35.40;;;20.53;;
7375;SDS011;3728;42.266;24.944;2023-12-28T06:06:25;34.27;;;20.03;;
7375;SDS011;3728;42.266;24.944;2023-12-28T06:08:53;50.70;;;30.93;;
7375;SDS011;3728;42.266;24.944;2023-12-28T06:11:21;43.70;;;31.57;;
7375;SDS011;3728;42.266;24.944;2023-12-28T06:13:49;42.13;;;27.67;;
7375;SDS011;3728;42.266;24.944;2023-12-28T06:16:16;22.87;;;13.03;;
7375;SDS011;3728;42.266;24.944;2023-12-28T06:18:43;21.20;;;11.73;;
7375;SDS011;3728;42.266;24.944;2023-12-28T06:21:12;39.63;;;26.80;;
7375;SDS011;3728;42.266;24.944;2023-12-28T06:23:42;43.43;;;29.97;;
7375;SDS011;3728;42.266;24.944;2023-12-28T06:26:10;36.30;;;25.63;;
7375;SDS011;3728;42.266;24.944;2023-12-28T06:28:38;65.23;;;35.00;;
7375;SDS011;3728;42.266;24.944;2023-12-28T06:31:08;39.93;;;21.70;;
7375;SDS011;3728;42.266;24.944;2023-12-28T06:33:39;26.00;;;15.90;;
7375;SDS011;3728;42.266;24.944;2023-12-28T06:36:08;38.93;;;20.23;;
7375;SDS011;3728;42.266;24.944;2023-12-28T06:38:43;32.53;;;19.53;;
7375;SDS011;3728;42.266;24.944;2023-12-28T06:41:22;39.77;;;22.50;;
7375;SDS011;3728;42.266;24.944;2023-12-28T06:43:53;35.03;;;18.97;;
7375;SDS011;3728;42.266;24.944;2023-12-28T06:46:21;37.60;;;23.40;;
7375;SDS011;3728;42.266;24.944;2023-12-28T06:48:49;12.20;;;9.00;;
7375;SDS011;3728;42.266;24.944;2023-12-28T06:51:17;14.37;;;7.87;;
7375;SDS011;3728;42.266;24.944;2023-12-28T06:53:49;13.57;;;8.37;;
7375;SDS011;3728;42.266;24.944;2023-12-28T06:56:17;12.97;;;8.27;;
7375;SDS011;3728;42.266;24.944;2023-12-28T06:58:45;13.60;;;9.53;;
7375;SDS011;3728;42.266;24.944;2023-12-28T07:01:13;20.43;;;12.83;;
7375;SDS011;3728;42.266;24.944;2023-12-28T07:03:43;26.17;;;14.50;;
7375;SDS011;3728;42.266;24.944;2023-12-28T07:06:13;21.30;;;11.83;;
7375;SDS011;3728;42.266;24.944;2023-12-28T07:08:41;18.57;;;12.23;;
7375;SDS011;3728;42.266;24.944;2023-12-28T07:11:11;17.50;;;9.50;;
7375;SDS011;3728;42.266;24.944;2023-12-28T07:13:38;17.67;;;10.17;;
7375;SDS011;3728;42.266;24.944;2023-12-28T07:16:06;27.27;;;14.97;;
7375;SDS011;3728;42.266;24.944;2023-12-28T07:18:37;36.60;;;16.53;;
7375;SDS011;3728;42.266;24.944;2023-12-28T07:21:05;31.80;;;15.60;;
7375;SDS011;3728;42.266;24.944;2023-12-28T07:23:36;44.80;;;16.43;;
7375;SDS011;3728;42.266;24.944;2023-12-28T07:26:05;29.67;;;15.30;;
7375;SDS011;3728;42.266;24.944;2023-12-28T07:28:33;40.67;;;14.90;;
7375;SDS011;3728;42.266;24.944;2023-12-28T07:31:01;14.90;;;7.57;;
7375;SDS011;3728;42.266;24.944;2023-12-28T07:33:36;10.23;;;6.07;;
7375;SDS011;3728;42.266;24.944;2023-12-28T07:36:05;16.93;;;7.10;;
7375;SDS011;3728;42.266;24.944;2023-12-28T07:38:33;9.73;;;6.73;;
7375;SDS011;3728;42.266;24.944;2023-12-28T07:41:01;13.73;;;8.33;;
7375;SDS011;3728;42.266;24.944;2023-12-28T07:43:30;20.87;;;10.50;;
7375;SDS011;3728;42.266;24.944;2023-12-28T07:45:57;20.87;;;10.73;;
7375;SDS011;3728;42.266;24.944;2023-12-28T07:48:25;22.03;;;9.20;;
7375;SDS011;3728;42.266;24.944;2023-12-28T07:50:52;17.27;;;10.37;;
7375;SDS011;3728;42.266;24.944;2023-12-28T07:53:20;26.07;;;11.13;;
7375;SDS011;3728;42.266;24.944;2023-12-28T07:55:48;22.83;;;11.47;;
7375;SDS011;3728;42.266;24.944;2023-12-28T07:58:15;21.13;;;14.13;;
7375;SDS011;3728;42.266;24.944;2023-12-28T08:00:43;55.83;;;37.17;;
7375;SDS011;3728;42.266;24.944;2023-12-28T08:03:11;115.40;;;61.50;;
7375;SDS011;3728;42.266;24.944;2023-12-28T08:05:42;97.37;;;52.47;;
7375;SDS011;3728;42.266;24.944;2023-12-28T08:08:09;38.97;;;24.30;;
7375;SDS011;3728;42.266;24.944;2023-12-28T08:10:37;115.70;;;54.37;;
7375;SDS011;3728;42.266;24.944;2023-12-28T08:13:04;13.33;;;9.20;;
7375;SDS011;3728;42.266;24.944;2023-12-28T08:15:32;20.13;;;11.87;;
7375;SDS011;3728;42.266;24.944;2023-12-28T08:18:00;22.70;;;13.10;;
7375;SDS011;3728;42.266;24.944;2023-12-28T08:20:29;25.53;;;17.93;;
7375;SDS011;3728;42.266;24.944;2023-12-28T08:22:56;10.73;;;7.87;;
7375;SDS011;3728;42.266;24.944;2023-12-28T08:25:40;26.80;;;16.77;;
7375;SDS011;3728;42.266;24.944;2023-12-28T08:28:11;16.33;;;11.07;;
7375;SDS011;3728;42.266;24.944;2023-12-28T08:30:41;11.17;;;8.23;;
7375;SDS011;3728;42.266;24.944;2023-12-28T08:33:10;14.47;;;9.17;;
7375;SDS011;3728;42.266;24.944;2023-12-28T08:35:37;18.43;;;11.17;;
7375;SDS011;3728;42.266;24.944;2023-12-28T08:38:07;15.93;;;10.93;;
7375;SDS011;3728;42.266;24.944;2023-12-28T08:40:35;19.43;;;10.70;;
7375;SDS011;3728;42.266;24.944;2023-12-28T08:43:03;18.83;;;9.57;;
7375;SDS011;3728;42.266;24.944;2023-12-28T08:45:31;19.37;;;9.20;;
7375;SDS011;3728;42.266;24.944;2023-12-28T08:48:01;17.27;;;9.77;;
7375;SDS011;3728;42.266;24.944;2023-12-28T08:50:33;15.77;;;10.10;;
7375;SDS011;3728;42.266;24.944;2023-12-28T08:53:01;15.13;;;9.07;;
7375;SDS011;3728;42.266;24.944;2023-12-28T08:55:28;14.03;;;8.73;;
7375;SDS011;3728;42.266;24.944;2023-12-28T08:57:56;14.03;;;9.47;;
7375;SDS011;3728;42.266;24.944;2023-12-28T09:00:26;16.37;;;10.37;;
7375;SDS011;3728;42.266;24.944;2023-12-28T09:02:55;16.37;;;10.17;;
7375;SDS011;3728;42.266;24.944;2023-12-28T09:05:24;14.67;;;8.93;;
7375;SDS011;3728;42.266;24.944;2023-12-28T09:07:55;15.63;;;10.73;;
7375;SDS011;3728;42.266;24.944;2023-12-28T09:10:24;18.63;;;11.80;;
7375;SDS011;3728;42.266;24.944;2023-12-28T09:12:53;22.57;;;13.27;;
7375;SDS011;3728;42.266;24.944;2023-12-28T09:15:23;14.40;;;11.77;;
7375;SDS011;3728;42.266;24.944;2023-12-28T09:17:55;17.63;;;11.87;;
7375;SDS011;3728;42.266;24.944;2023-12-28T09:20:30;18.73;;;11.23;;
7375;SDS011;3728;42.266;24.944;2023-12-28T09:23:04;16.63;;;11.70;;
7375;SDS011;3728;42.266;24.944;2023-12-28T09:25:33;19.13;;;12.80;;
7375;SDS011;3728;42.266;24.944;2023-12-28T09:28:02;21.73;;;13.70;;
7375;SDS011;3728;42.266;24.944;2023-12-28T09:30:30;24.00;;;13.60;;
7375;SDS011;3728;42.266;24.944;2023-12-28T09:33:01;25.97;;;16.93;;
7375;SDS011;3728;42.266;24.944;2023-12-28T09:35:34;32.10;;;18.07;;
7375;SDS011;3728;42.266;24.944;2023-12-28T09:38:03;29.27;;;18.90;;
7375;SDS011;3728;42.266;24.944;2023-12-28T09:40:33;30.60;;;17.33;;
7375;SDS011;3728;42.266;24.944;2023-12-28T09:43:25;26.10;;;16.37;;
7375;SDS011;3728;42.266;24.944;2023-12-28T09:45:55;19.90;;;12.30;;
7375;SDS011;3728;42.266;24.944;2023-12-28T09:48:23;12.60;;;8.73;;
7375;SDS011;3728;42.266;24.944;2023-12-28T09:50:53;11.43;;;7.63;;
7375;SDS011;3728;42.266;24.944;2023-12-28T09:53:28;12.23;;;6.73;;
7375;SDS011;3728;42.266;24.944;2023-12-28T09:55:57;11.30;;;7.83;;
7375;SDS011;3728;42.266;24.944;2023-12-28T09:58:27;8.10;;;6.70;;
7375;SDS011;3728;42.266;24.944;2023-12-28T10:01:01;10.73;;;7.20;;
7375;SDS011;3728;42.266;24.944;2023-12-28T10:03:31;14.10;;;9.87;;
7375;SDS011;3728;42.266;24.944;2023-12-28T10:06:08;8.67;;;7.07;;
7375;SDS011;3728;42.266;24.944;2023-12-28T10:08:44;9.67;;;6.63;;
7375;SDS011;3728;42.266;24.944;2023-12-28T10:11:16;10.90;;;7.60;;
7375;SDS011;3728;42.266;24.944;2023-12-28T10:13:45;16.00;;;9.07;;
7375;SDS011;3728;42.266;24.944;2023-12-28T10:16:17;18.27;;;11.13;;
7375;SDS011;3728;42.266;24.944;2023-12-28T10:18:46;73.60;;;13.80;;
7375;SDS011;3728;42.266;24.944;2023-12-28T10:21:15;10.07;;;7.63;;
7375;SDS011;3728;42.266;24.944;2023-12-28T10:23:44;11.20;;;7.53;;
7375;SDS011;3728;42.266;24.944;2023-12-28T10:26:11;14.93;;;9.07;;
7375;SDS011;3728;42.266;24.944;2023-12-28T10:28:39;13.43;;;8.03;;
7375;SDS011;3728;42.266;24.944;2023-12-28T10:31:10;17.90;;;12.83;;
7375;SDS011;3728;42.266;24.944;2023-12-28T10:33:41;34.00;;;21.87;;
7375;SDS011;3728;42.266;24.944;2023-12-28T10:36:13;14.10;;;9.67;;
7375;SDS011;3728;42.266;24.944;2023-12-28T10:38:53;12.33;;;7.40;;
7375;SDS011;3728;42.266;24.944;2023-12-28T10:41:23;11.63;;;6.57;;
7375;SDS011;3728;42.266;24.944;2023-12-28T10:44:02;8.60;;;6.60;;
7375;SDS011;3728;42.266;24.944;2023-12-28T10:46:38;11.10;;;7.63;;
7375;SDS011;3728;42.266;24.944;2023-12-28T10:49:16;11.50;;;8.03;;
7375;SDS011;3728;42.266;24.944;2023-12-28T10:52:10;15.43;;;7.53;;
7375;SDS011;3728;42.266;24.944;2023-12-28T10:57:49;12.83;;;7.03;;
7375;SDS011;3728;42.266;24.944;2023-12-28T11:00:30;9.70;;;7.33;;
7375;SDS011;3728;42.266;24.944;2023-12-28T11:03:04;22.83;;;13.20;;
7375;SDS011;3728;42.266;24.944;2023-12-28T11:05:36;31.70;;;13.87;;
7375;SDS011;3728;42.266;24.944;2023-12-28T11:08:08;29.27;;;15.33;;
7375;SDS011;3728;42.266;24.944;2023-12-28T11:10:57;16.77;;;10.77;;
7375;SDS011;3728;42.266;24.944;2023-12-28T11:13:32;16.13;;;7.97;;
7375;SDS011;3728;42.266;24.944;2023-12-28T11:16:03;10.03;;;7.37;;
7375;SDS011;3728;42.266;24.944;2023-12-28T11:18:33;11.17;;;6.57;;
7375;SDS011;3728;42.266;24.944;2023-12-28T11:21:02;6.53;;;5.20;;
7375;SDS011;3728;42.266;24.944;2023-12-28T11:23:33;12.37;;;5.63;;
7375;SDS011;3728;42.266;24.944;2023-12-28T11:26:15;7.57;;;5.27;;
7375;SDS011;3728;42.266;24.944;2023-12-28T11:28:47;9.50;;;5.23;;
7375;SDS011;3728;42.266;24.944;2023-12-28T11:31:17;9.63;;;4.83;;
7375;SDS011;3728;42.266;24.944;2023-12-28T11:33:47;5.47;;;4.90;;
7375;SDS011;3728;42.266;24.944;2023-12-28T11:36:25;20.60;;;5.43;;
7375;SDS011;3728;42.266;24.944;2023-12-28T11:39:10;6.73;;;4.27;;
7375;SDS011;3728;42.266;24.944;2023-12-28T11:41:37;6.70;;;4.50;;
7375;SDS011;3728;42.266;24.944;2023-12-28T11:44:06;5.87;;;4.50;;
7375;SDS011;3728;42.266;24.944;2023-12-28T11:46:37;10.67;;;4.63;;
7375;SDS011;3728;42.266;24.944;2023-12-28T11:49:08;6.57;;;5.00;;
7375;SDS011;3728;42.266;24.944;2023-12-28T11:51:39;8.37;;;5.30;;
7375;SDS011;3728;42.266;24.944;2023-12-28T11:54:08;18.73;;;6.10;;
7375;SDS011;3728;42.266;24.944;2023-12-28T11:56:35;8.43;;;4.93;;
7375;SDS011;3728;42.266;24.944;2023-12-28T11:59:06;7.83;;;5.00;;
7375;SDS011;3728;42.266;24.944;2023-12-28T12:01:34;17.03;;;5.27;;
7375;SDS011;3728;42.266;24.944;2023-12-28T12:04:02;18.80;;;5.83;;
7375;SDS011;3728;42.266;24.944;2023-12-28T12:06:30;16.87;;;5.00;;
7375;SDS011;3728;42.266;24.944;2023-12-28T12:08:58;7.13;;;4.67;;
7375;SDS011;3728;42.266;24.944;2023-12-28T12:11:28;15.10;;;5.33;;
7375;SDS011;3728;42.266;24.944;2023-12-28T12:14:00;9.73;;;4.80;;
7375;SDS011;3728;42.266;24.944;2023-12-28T12:16:29;9.17;;;4.63;;
7375;SDS011;3728;42.266;24.944;2023-12-28T12:18:58;10.93;;;5.30;;
7375;SDS011;3728;42.266;24.944;2023-12-28T12:21:27;7.67;;;5.43;;
7375;SDS011;3728;42.266;24.944;2023-12-28T12:23:54;9.00;;;4.40;;
7375;SDS011;3728;42.266;24.944;2023-12-28T12:26:22;10.97;;;4.63;;
7375;SDS011;3728;42.266;24.944;2023-12-28T12:28:53;5.47;;;3.70;;
7375;SDS011;3728;42.266;24.944;2023-12-28T12:31:24;11.37;;;4.37;;
7375;SDS011;3728;42.266;24.944;2023-12-28T12:33:54;6.63;;;4.10;;
7375;SDS011;3728;42.266;24.944;2023-12-28T12:36:24;5.50;;;4.13;;
7375;SDS011;3728;42.266;24.944;2023-12-28T12:38:55;5.40;;;3.60;;
7375;SDS011;3728;42.266;24.944;2023-12-28T12:41:23;6.13;;;4.50;;
7375;SDS011;3728;42.266;24.944;2023-12-28T12:43:51;6.47;;;4.33;;
7375;SDS011;3728;42.266;24.944;2023-12-28T12:46:23;11.07;;;4.50;;
7375;SDS011;3728;42.266;24.944;2023-12-28T12:48:58;4.72;;;3.80;;
7375;SDS011;3728;42.266;24.944;2023-12-28T12:51:30;7.90;;;4.10;;
7375;SDS011;3728;42.266;24.944;2023-12-28T12:54:00;5.35;;;3.25;;
7375;SDS011;3728;42.266;24.944;2023-12-28T12:56:29;8.98;;;3.67;;
7375;SDS011;3728;42.266;24.944;2023-12-28T12:58:58;11.65;;;4.80;;
7375;SDS011;3728;42.266;24.944;2023-12-28T13:01:25;11.55;;;5.65;;
7375;SDS011;3728;42.266;24.944;2023-12-28T13:03:57;5.63;;;4.05;;
7375;SDS011;3728;42.266;24.944;2023-12-28T13:06:26;6.35;;;3.75;;
7375;SDS011;3728;42.266;24.944;2023-12-28T13:08:58;10.15;;;4.63;;
7375;SDS011;3728;42.266;24.944;2023-12-28T13:11:27;6.93;;;4.28;;
7375;SDS011;3728;42.266;24.944;2023-12-28T13:13:55;7.15;;;4.35;;
7375;SDS011;3728;42.266;24.944;2023-12-28T13:16:27;7.15;;;4.65;;
7375;SDS011;3728;42.266;24.944;2023-12-28T13:18:56;5.35;;;3.97;;
7375;SDS011;3728;42.266;24.944;2023-12-28T13:21:25;8.80;;;4.47;;
7375;SDS011;3728;42.266;24.944;2023-12-28T13:23:56;6.20;;;4.50;;
7375;SDS011;3728;42.266;24.944;2023-12-28T13:26:27;6.70;;;4.47;;
7375;SDS011;3728;42.266;24.944;2023-12-28T13:28:54;6.57;;;4.50;;
7375;SDS011;3728;42.266;24.944;2023-12-28T13:31:23;10.47;;;4.40;;
7375;SDS011;3728;42.266;24.944;2023-12-28T13:33:54;8.17;;;4.33;;
7375;SDS011;3728;42.266;24.944;2023-12-28T13:36:22;15.70;;;10.33;;
7375;SDS011;3728;42.266;24.944;2023-12-28T13:38:50;50.20;;;27.93;;
7375;SDS011;3728;42.266;24.944;2023-12-28T13:41:18;17.77;;;11.30;;
7375;SDS011;3728;42.266;24.944;2023-12-28T13:43:46;7.43;;;5.30;;
7375;SDS011;3728;42.266;24.944;2023-12-28T13:46:14;7.83;;;5.17;;
7375;SDS011;3728;42.266;24.944;2023-12-28T13:48:42;25.07;;;17.70;;
7375;SDS011;3728;42.266;24.944;2023-12-28T13:51:10;9.00;;;6.10;;
7375;SDS011;3728;42.266;24.944;2023-12-28T13:53:41;15.60;;;5.53;;
7375;SDS011;3728;42.266;24.944;2023-12-28T13:56:09;63.40;;;33.53;;
7375;SDS011;3728;42.266;24.944;2023-12-28T13:58:43;11.93;;;5.20;;
7375;SDS011;3728;42.266;24.944;2023-12-28T14:01:11;5.55;;;4.20;;
7375;SDS011;3728;42.266;24.944;2023-12-28T14:03:40;46.67;;;21.03;;
7375;SDS011;3728;42.266;24.944;2023-12-28T14:06:12;148.80;;;50.80;;
7375;SDS011;3728;42.266;24.944;2023-12-28T14:08:42;25.93;;;11.80;;
7375;SDS011;3728;42.266;24.944;2023-12-28T14:11:10;306.30;;;105.37;;
7375;SDS011;3728;42.266;24.944;2023-12-28T14:13:42;70.40;;;25.67;;
7375;SDS011;3728;42.266;24.944;2023-12-28T14:16:15;23.17;;;10.90;;
7375;SDS011;3728;42.266;24.944;2023-12-28T14:18:44;23.73;;;12.47;;
7375;SDS011;3728;42.266;24.944;2023-12-28T14:21:16;16.63;;;7.97;;
7375;SDS011;3728;42.266;24.944;2023-12-28T14:23:45;7.23;;;4.10;;
7375;SDS011;3728;42.266;24.944;2023-12-28T14:26:14;10.33;;;4.93;;
7375;SDS011;3728;42.266;24.944;2023-12-28T14:28:46;7.27;;;4.43;;
7375;SDS011;3728;42.266;24.944;2023-12-28T14:31:17;6.23;;;4.13;;
7375;SDS011;3728;42.266;24.944;2023-12-28T14:33:51;12.37;;;5.30;;
7375;SDS011;3728;42.266;24.944;2023-12-28T14:36:30;9.20;;;4.97;;
7375;SDS011;3728;42.266;24.944;2023-12-28T14:39:02;11.80;;;4.90;;
7375;SDS011;3728;42.266;24.944;2023-12-28T14:41:33;8.30;;;4.37;;
7375;SDS011;3728;42.266;24.944;2023-12-28T14:44:03;5.77;;;4.10;;
7375;SDS011;3728;42.266;24.944;2023-12-28T14:46:33;6.73;;;4.60;;
7375;SDS011;3728;42.266;24.944;2023-12-28T14:49:05;14.63;;;5.20;;
7375;SDS011;3728;42.266;24.944;2023-12-28T14:51:33;14.17;;;6.30;;
7375;SDS011;3728;42.266;24.944;2023-12-28T14:54:02;12.63;;;5.40;;
7375;SDS011;3728;42.266;24.944;2023-12-28T14:56:30;49.87;;;19.20;;
7375;SDS011;3728;42.266;24.944;2023-12-28T14:59:11;26.33;;;11.53;;